Nearby METAR

 

KVTN - Valentine, Nebraska, USA
Distance from station: S 1.3mi, 2.1km
Updated: Sat, 23-Feb-2019 10:52pm CST
Clear
Clear
 Wind from NW
Wind: NW 20 mph , 31 km/h, Gust: 36 mph , 57 km/h
Temperature: 23°F , -5°C
Wind Chill: 8°F , -13°C
Dew Point: 12°F , -11°C
Humidity: 63%
Barometer: 30.00 inHg , 1015.9 hPa
Clouds: Clear
Visibility: 10 miles , 16 km
2019/02/24 04:52 KVTN 240452Z AUTO 32017G31KT 10SM CLR M05/M11 A3000 RMK AO2 PK WND 32031/0447 SLP196 T10501111
KANW - Ainsworth, Nebraska, USA
Distance from station: SE 36mi, 57km
Updated: Sat, 23-Feb-2019 11:35pm CST
Clear
Clear
 Wind from NW
Wind: NW 21 mph , 33 km/h, Gust: 26 mph , 43 km/h
Temperature: 21°F , -6°C
Wind Chill: 5°F , -15°C
Dew Point: 12°F , -11°C
Humidity: 68%
Barometer: 30.00 inHg , 1015.9 hPa
Clouds: Clear
Visibility: 10 miles , 16 km
2019/02/24 05:35 KANW 240535Z AUTO 32018G23KT 10SM CLR M06/M11 A3000 RMK AO2 T10621109
 
KICR - Winner, South Dakota, USA
Distance from station: NE 50mi, 80km
Updated: Sat, 23-Feb-2019 10:53pm CST
Clear
Clear
 Wind from NW
Wind: NW 22 mph , 35 km/h
Temperature: 18°F , -8°C
Wind Chill: 1°F , -17°C
Dew Point: 10°F , -12°C
Humidity: 73%
Barometer: 29.99 inHg , 1015.6 hPa
Clouds: Clear
Visibility: 10 miles , 16 km
2019/02/24 04:53 KICR 240453Z AUTO 32019KT 10SM CLR M08/M12 A2999 RMK AO2 PK WND 30028/0422 SLP188 T10781117
KTIF - Thedford, Nebraska, USA
Distance from station: S 63mi, 101km
Updated: Sat, 23-Feb-2019 11:15pm CST
Clear
Clear
 Wind from NW
Wind: NW 13 mph , 20 km/h
Temperature: 23°F , -5°C
Wind Chill: 11°F , -12°C
Dew Point: 12°F , -11°C
Humidity: 63%
Barometer: 30.01 inHg , 1016.3 hPa
Clouds: Clear
Visibility: 10 miles , 16 km
2019/02/24 05:15 KTIF 240515Z AUTO 32011KT 10SM CLR M05/M11 A3001 RMK AO2 T10531110
 
K9V9 - Chamberlain, South Dakota, USA
Distance from station: NE 87mi, 141km
Updated: Sat, 23-Feb-2019 11:15pm CST
Clear
Clear
 Wind from NW
Wind: NW 21 mph , 33 km/h, Gust: 28 mph , 44 km/h
Temperature: 19°F , -7°C
Wind Chill: 3°F , -16°C
Dew Point: 16°F , -9°C
Humidity: 86%
Barometer: 29.98 inHg , 1015.2 hPa
Clouds: Clear
Visibility: 10 miles , 16 km
2019/02/24 05:15 K9V9 240515Z AUTO 32018G24KT 10SM CLR M07/M09 A2998 RMK AO2 T10751091
KIEN - Pine Ridge, South Dakota, USA
Distance from station: W 99mi, 160km
Updated: Sat, 23-Feb-2019 10:52pm CST
Clear
Clear
 Wind from NNW
Wind: NNW 10 mph , 17 km/h
Temperature: 23°F , -5°C
Wind Chill: 13°F , -11°C
Dew Point: 10°F , -12°C
Humidity: 58%
Barometer: 30.04 inHg , 1017.3 hPa
Clouds: Clear
2019/02/24 04:52 KIEN 240452Z AUTO 34009KT CLR M05/M12 A3004 RMK AO2 SLP218 T10501122 $
 
KPIR - Pierre, South Dakota, USA
Distance from station: N 105mi, 169km
Updated: Sat, 23-Feb-2019 11:29pm CST
Blowing snow, Mist, Overcast
Blowing snow, Mist, Overcast
 Wind from NW
Wind: NW 30 mph , 48 km/h, Gust: 43 mph , 69 km/h
Temperature: 10°F , -12°C
Wind Chill: -12°F , -24°C
Dew Point: 7°F , -14°C
Humidity: 85%
Barometer: 30.06 inHg , 1017.9 hPa
Summary: Blowing snow, Mist
Clouds: Overcast
Visibility: 3 miles , 5 km
Cloud details: Overcast 1500 ft
2019/02/24 05:29 KPIR 240529Z AUTO 32026G37KT 3SM BLSN BR OVC015 M12/M14 A3006 RMK AO2 PK WND 32039/0519 T11221144 $
KLBF - North Platte, Nebraska, USA
Distance from station: S 120mi, 193km
Updated: Sat, 23-Feb-2019 10:53pm CST
Clear
Clear
 Wind from NW
Wind: NW 6 mph , 9 km/h
Temperature: 14°F , -10°C
Wind Chill: 5°F , -15°C
Dew Point: 7°F , -14°C
Humidity: 73%
Barometer: 30.03 inHg , 1016.9 hPa
Clouds: Clear
Visibility: 10 miles , 16 km
2019/02/24 04:53 KLBF 240453Z AUTO 32005KT 10SM CLR M10/M14 A3003 RMK AO2 SLP208 T11001139
 
KBBW - Broken Bow Muni, Nebraska, USA
Distance from station: SSE 110mi, 177km
Updated: Sat, 23-Feb-2019 10:53pm CST
Clear
Clear
 Wind from NW
Wind: NW 24 mph , 39 km/h
Temperature: 25°F , -4°C
Wind Chill: 10°F , -12°C
Dew Point: 10°F , -12°C
Humidity: 54%
Barometer: 29.97 inHg , 1014.9 hPa
Clouds: Clear
Visibility: 10 miles , 16 km
2019/02/24 04:53 KBBW 240453Z AUTO 31021KT 10SM CLR M04/M12 A2997 RMK AO2 PK WND 31027/0419 SLP181 T10441117
KRAP - Rapid City, South Dakota, USA
Distance from station: NW 149mi, 240km
Updated: Sat, 23-Feb-2019 10:52pm CST
Clear
Clear
 Wind from NNW
Wind: NNW 28 mph , 44 km/h
Temperature: 16°F , -9°C
Wind Chill: -4°F , -20°C
Dew Point: 9°F , -13°C
Humidity: 73%
Barometer: 30.05 inHg , 1017.6 hPa
Clouds: Clear
Visibility: 10 miles , 16 km
2019/02/24 04:52 KRAP 240452Z 34024KT 10SM CLR M09/M13 A3005 RMK AO2 PK WND 34042/0353 SLP230 T10891133